createdAt,value
2019-04-22T00:00:43.294Z,6.60
2019-04-22T00:03:14.626Z,6.67
2019-04-22T00:06:01.098Z,6.33
2019-04-22T00:08:36.138Z,6.30
2019-04-22T00:11:14.526Z,6.43
2019-04-22T00:13:43.550Z,6.27
2019-04-22T00:16:01.127Z,6.53
2019-04-22T00:18:46.790Z,5.77
2019-04-22T00:21:04.707Z,6.40
2019-04-22T00:23:40.369Z,6.20
2019-04-22T00:26:14.836Z,6.20
2019-04-22T00:28:41.176Z,5.97
2019-04-22T00:31:26.807Z,6.33
2019-04-22T00:33:57.714Z,6.37
2019-04-22T00:36:28.612Z,6.33
2019-04-22T00:38:59.058Z,6.17
2019-04-22T00:41:29.702Z,6.60
2019-04-22T00:44:05.242Z,6.13
2019-04-22T00:46:31.761Z,6.43
2019-04-22T00:49:48.585Z,6.30
2019-04-22T00:51:29.040Z,6.37
2019-04-22T00:53:56.243Z,7.23
2019-04-22T00:56:24.406Z,6.43
2019-04-22T00:58:50.239Z,6.40
2019-04-22T01:01:23.879Z,6.53
2019-04-22T01:04:04.179Z,7.03
2019-04-22T01:06:25.839Z,6.43
2019-04-22T01:09:07.140Z,6.70
2019-04-22T01:11:29.880Z,6.63
2019-04-22T01:13:58.313Z,6.23
2019-04-22T01:16:28.315Z,6.60
2019-04-22T01:19:05.183Z,6.47
2019-04-22T01:21:36.109Z,6.63
2019-04-22T01:23:57.582Z,6.93
2019-04-22T01:26:25.517Z,6.93
2019-04-22T01:28:50.084Z,7.20
2019-04-22T01:31:15.341Z,7.10
2019-04-22T01:33:45.793Z,7.30
2019-04-22T01:36:30.122Z,7.07
2019-04-22T01:39:03.846Z,6.70
2019-04-22T01:41:43.931Z,6.80
2019-04-22T01:44:19.371Z,7.30
2019-04-22T01:46:39.295Z,7.67
2019-04-22T01:49:08.753Z,7.70
2019-04-22T01:51:47.241Z,6.67
2019-04-22T01:56:36.501Z,7.67
2019-04-22T01:58:58.957Z,7.73
2019-04-22T02:01:37.653Z,7.03
2019-04-22T02:04:08.914Z,7.10
2019-04-22T02:06:35.211Z,6.90
2019-04-22T02:09:09.532Z,7.03
2019-04-22T02:11:41.822Z,7.20
2019-04-22T02:14:05.133Z,7.33
2019-04-22T02:16:36.156Z,6.73
2019-04-22T02:19:11.465Z,7.07
2019-04-22T02:21:38.546Z,6.93
2019-04-22T02:24:02.449Z,7.37
2019-04-22T02:26:48.364Z,7.07
2019-04-22T02:29:12.879Z,6.37
2019-04-22T02:31:44.996Z,6.73
2019-04-22T02:34:13.858Z,6.63
2019-04-22T02:41:55.048Z,6.70
2019-04-22T02:44:13.261Z,7.17
2019-04-22T02:51:32.590Z,6.70
2019-04-22T02:59:25.887Z,7.00
2019-04-22T03:01:42.447Z,6.83
2019-04-22T03:04:09.329Z,6.70
2019-04-22T03:09:18.562Z,7.00
2019-04-22T03:29:11.149Z,7.13
2019-04-22T03:37:09.564Z,7.10
2019-04-22T03:39:38.111Z,7.20
2019-04-22T03:44:31.277Z,7.10
2019-04-22T03:51:56.704Z,7.07
2019-04-22T03:54:39.555Z,7.10
2019-04-22T03:59:26.570Z,7.60
2019-04-22T04:01:55.323Z,6.60
2019-04-22T04:07:01.876Z,7.03
2019-04-22T04:12:07.747Z,7.07
2019-04-22T04:14:37.359Z,6.87
2019-04-22T04:16:56.416Z,8.90
2019-04-22T04:19:31.487Z,7.33
2019-04-22T04:24:32.718Z,7.10
2019-04-22T04:26:54.868Z,7.87
2019-04-22T04:31:53.353Z,7.70
2019-04-22T04:34:50.980Z,7.63
2019-04-22T04:42:07.309Z,7.63
2019-04-22T04:46:58.461Z,7.23
2019-04-22T04:51:55.686Z,7.63
2019-04-22T04:56:46.591Z,7.33
2019-04-22T04:59:29.988Z,8.17
2019-04-22T05:16:46.347Z,7.30
2019-04-22T05:21:50.167Z,7.53
2019-04-22T05:24:20.212Z,7.50
2019-04-22T05:31:47.883Z,7.63
2019-04-22T05:34:19.564Z,7.57
2019-04-22T05:36:44.480Z,7.30
2019-04-22T05:39:12.435Z,7.43
2019-04-22T05:41:35.363Z,7.00
2019-04-22T05:46:46.442Z,7.37
2019-04-22T05:49:25.762Z,7.23
2019-04-22T05:51:41.704Z,6.77
2019-04-22T05:54:14.511Z,6.90
2019-04-22T05:59:10.346Z,7.07
2019-04-22T06:01:54.993Z,7.30
2019-04-22T06:04:09.851Z,7.10
2019-04-22T06:06:35.532Z,7.17
2019-04-22T06:09:10.882Z,6.57
2019-04-22T06:11:33.548Z,7.13
2019-04-22T06:14:12.306Z,6.83
2019-04-22T06:16:44.436Z,6.90
2019-04-22T06:19:17.038Z,6.60
2019-04-22T06:21:44.072Z,6.80
2019-04-22T06:24:18.987Z,6.50
2019-04-22T06:26:52.709Z,6.63
2019-04-22T06:29:16.571Z,6.50
2019-04-22T06:32:11.640Z,6.57
2019-04-22T06:34:17.227Z,6.80
2019-04-22T06:36:51.118Z,6.47
2019-04-22T06:41:47.727Z,6.67
2019-04-22T06:46:47.466Z,6.33
2019-04-22T06:49:20.753Z,6.57
2019-04-22T06:51:46.521Z,5.93
2019-04-22T06:54:14.746Z,7.07
2019-04-22T06:56:42.600Z,6.30
2019-04-22T06:59:16.872Z,6.23
2019-04-22T07:04:11.656Z,6.73
2019-04-22T07:06:48.610Z,5.77
2019-04-22T07:11:43.313Z,6.17
2019-04-22T07:14:10.560Z,5.40
2019-04-22T07:16:43.470Z,5.60
2019-04-22T07:19:13.575Z,5.40
2019-04-22T07:21:46.937Z,5.97
2019-04-22T07:24:28.286Z,5.43
2019-04-22T07:26:45.027Z,5.13
2019-04-22T07:29:12.084Z,4.80
2019-04-22T07:31:51.344Z,4.83
2019-04-22T07:34:19.713Z,5.13
2019-04-22T07:39:16.067Z,4.43
2019-04-22T07:41:42.991Z,4.53
2019-04-22T07:44:19.201Z,5.00
2019-04-22T07:46:51.037Z,4.27
2019-04-22T07:49:18.347Z,4.83
2019-04-22T07:51:44.468Z,4.40
2019-04-22T07:54:16.327Z,4.50
2019-04-22T07:56:48.619Z,4.67
2019-04-22T07:59:18.716Z,4.90
2019-04-22T08:01:57.673Z,4.33
2019-04-22T08:04:32.113Z,4.27
2019-04-22T08:09:22.795Z,4.50
2019-04-22T08:11:49.873Z,4.17
2019-04-22T08:14:14.665Z,4.40
2019-04-22T08:16:51.942Z,4.20
2019-04-22T08:19:20.397Z,4.33
2019-04-22T08:21:50.671Z,4.13
2019-04-22T08:24:20.181Z,4.27
2019-04-22T08:26:46.828Z,4.23
2019-04-22T08:29:22.048Z,3.87
2019-04-22T08:31:49.239Z,4.23
2019-04-22T08:34:20.981Z,4.13
2019-04-22T08:37:22.795Z,3.80
2019-04-22T08:39:21.732Z,4.80
2019-04-22T08:41:58.400Z,4.47
2019-04-22T08:44:40.197Z,4.60
2019-04-22T08:46:48.884Z,4.17
2019-04-22T08:49:19.929Z,3.97
2019-04-22T08:51:49.085Z,4.27
2019-04-22T08:54:18.272Z,4.43
2019-04-22T08:56:45.858Z,4.37
2019-04-22T08:59:15.201Z,4.30
2019-04-22T09:01:43.490Z,4.83
2019-04-22T09:04:11.918Z,4.67
2019-04-22T09:08:02.096Z,4.93
2019-04-22T09:09:19.599Z,5.27
2019-04-22T09:11:54.653Z,5.30
2019-04-22T09:14:31.336Z,4.33
2019-04-22T09:17:00.014Z,4.90
2019-04-22T09:19:30.094Z,4.27
2019-04-22T09:22:03.482Z,4.67
2019-04-22T09:24:29.535Z,4.47
2019-04-22T09:27:05.860Z,4.17
2019-04-22T09:29:41.595Z,4.40
2019-04-22T09:32:15.331Z,5.00
2019-04-22T09:34:56.564Z,4.63
2019-04-22T09:37:24.756Z,4.93
2019-04-22T09:39:51.180Z,4.63
2019-04-22T09:42:21.965Z,4.77
2019-04-22T09:44:47.532Z,4.97
2019-04-22T09:47:19.096Z,4.40
2019-04-22T09:50:01.938Z,4.63
2019-04-22T09:52:15.681Z,4.40
2019-04-22T09:54:53.112Z,5.10
2019-04-22T09:57:15.122Z,4.70
2019-04-22T09:59:52.516Z,4.67
2019-04-22T10:04:55.165Z,4.60
2019-04-22T10:07:23.916Z,4.47
2019-04-22T10:12:19.604Z,3.63
2019-04-22T10:14:49.448Z,4.47
2019-04-22T10:17:15.629Z,4.60
2019-04-22T10:19:49.316Z,4.40
2019-04-22T10:22:23.876Z,4.97
2019-04-22T10:24:45.401Z,4.30
2019-04-22T10:27:16.216Z,3.67
2019-04-22T10:29:59.864Z,3.80
2019-04-22T10:32:14.299Z,3.43
2019-04-22T10:34:31.289Z,3.63
2019-04-22T10:36:58.608Z,4.00
2019-04-22T10:39:35.704Z,3.63
2019-04-22T10:41:52.920Z,3.67
2019-04-22T10:44:21.331Z,4.27
2019-04-22T10:46:49.851Z,3.73
2019-04-22T10:49:18.255Z,3.87
2019-04-22T10:51:46.605Z,3.73
2019-04-22T10:54:15.703Z,3.37
2019-04-22T10:56:45.242Z,3.47
2019-04-22T10:59:14.372Z,3.57
2019-04-22T11:01:48.779Z,3.30
2019-04-22T11:04:17.584Z,3.33
2019-04-22T11:06:53.077Z,3.70
2019-04-22T11:09:16.301Z,3.57
2019-04-22T11:11:54.488Z,3.40
2019-04-22T11:14:14.906Z,3.40
2019-04-22T11:16:43.600Z,3.53
2019-04-22T11:19:13.775Z,3.50
2019-04-22T11:21:43.327Z,3.43
2019-04-22T11:24:12.627Z,3.40
2019-04-22T11:26:41.088Z,3.67
2019-04-22T11:29:09.967Z,3.13
2019-04-22T11:31:38.712Z,3.47
2019-04-22T11:34:06.988Z,3.57
2019-04-22T11:36:36.923Z,3.40
2019-04-22T11:39:10.774Z,3.37
2019-04-22T11:41:36.198Z,3.30
2019-04-22T11:44:05.414Z,3.60
2019-04-22T11:46:33.734Z,3.27
2019-04-22T11:49:01.961Z,3.60
2019-04-22T11:51:32.037Z,3.43
2019-04-22T11:54:01.065Z,3.33
2019-04-22T11:56:29.667Z,3.80
2019-04-22T11:58:57.973Z,3.10
2019-04-22T12:01:26.705Z,2.73
2019-04-22T12:03:55.783Z,3.17
2019-04-22T12:06:24.114Z,2.53
2019-04-22T12:08:52.245Z,2.90
2019-04-22T12:11:22.738Z,2.70
2019-04-22T12:13:51.803Z,2.20
2019-04-22T12:16:21.226Z,2.77
2019-04-22T12:18:51.098Z,2.87
2019-04-22T12:21:19.527Z,3.00
2019-04-22T12:23:48.687Z,3.27
2019-04-22T12:26:19.190Z,2.70
2019-04-22T12:28:48.866Z,2.93
2019-04-22T12:31:17.695Z,3.03
2019-04-22T12:33:47.471Z,2.80
2019-04-22T12:36:16.131Z,2.30
2019-04-22T12:38:45.303Z,2.53
2019-04-22T12:41:14.122Z,2.70
2019-04-22T12:43:44.840Z,2.90
2019-04-22T12:46:14.439Z,3.00
2019-04-22T12:48:43.721Z,3.23
2019-04-22T12:51:13.280Z,2.70
2019-04-22T12:53:42.292Z,3.03
2019-04-22T12:56:11.005Z,3.00
2019-04-22T12:58:41.313Z,3.10
2019-04-22T13:01:10.925Z,3.00
2019-04-22T13:03:40.277Z,2.20
2019-04-22T13:06:09.796Z,2.40
2019-04-22T13:08:38.451Z,2.40
2019-04-22T13:11:12.278Z,2.20
2019-04-22T13:13:36.971Z,2.20
2019-04-22T13:16:06.867Z,2.40
2019-04-22T13:18:43.674Z,2.37
2019-04-22T13:21:06.540Z,2.20
2019-04-22T13:23:34.853Z,2.10
2019-04-22T13:26:03.184Z,2.10
2019-04-22T13:28:31.547Z,2.30
2019-04-22T13:31:01.760Z,2.10
2019-04-22T13:33:30.565Z,2.40
2019-04-22T13:35:59.561Z,2.00
2019-04-22T13:38:29.080Z,2.30
2019-04-22T13:41:07.877Z,2.20
2019-04-22T13:43:27.250Z,2.30
2019-04-22T13:45:56.172Z,2.07
2019-04-22T13:48:47.067Z,2.03
2019-04-22T13:51:33.960Z,2.20
2019-04-22T13:54:14.029Z,2.20
2019-04-22T13:56:12.505Z,1.90
2019-04-22T13:58:37.791Z,1.90
2019-04-22T14:00:56.595Z,2.13
2019-04-22T14:03:39.325Z,2.30
2019-04-22T14:06:08.895Z,2.13
2019-04-22T14:08:37.716Z,2.20
2019-04-22T14:11:17.054Z,2.03
2019-04-22T14:13:35.650Z,2.87
2019-04-22T14:16:04.768Z,2.10
2019-04-22T14:18:34.915Z,2.03
2019-04-22T14:21:03.253Z,2.10
2019-04-22T14:23:32.885Z,2.10
2019-04-22T14:26:01.361Z,2.50
2019-04-22T14:28:31.315Z,2.87
2019-04-22T14:31:00.393Z,2.40
2019-04-22T14:33:29.960Z,2.30
2019-04-22T14:35:58.553Z,2.47
2019-04-22T14:38:27.954Z,2.00
2019-04-22T14:40:56.378Z,2.90
2019-04-22T14:43:52.712Z,2.10
2019-04-22T14:48:49.873Z,2.87
2019-04-22T14:51:11.880Z,2.20
2019-04-22T14:53:41.629Z,2.70
2019-04-22T14:55:54.755Z,2.77
2019-04-22T14:58:24.592Z,2.70
2019-04-22T15:00:55.110Z,2.83
2019-04-22T15:03:23.848Z,2.50
2019-04-22T15:05:52.399Z,2.70
2019-04-22T15:08:22.224Z,2.60
2019-04-22T15:10:51.789Z,2.63
2019-04-22T15:13:21.266Z,2.57
2019-04-22T15:16:23.876Z,2.63
2019-04-22T15:18:56.144Z,2.40
2019-04-22T15:21:26.918Z,2.40
2019-04-22T15:23:56.379Z,2.33
2019-04-22T15:26:26.433Z,2.47
2019-04-22T15:28:55.480Z,2.43
2019-04-22T15:31:23.714Z,1.83
2019-04-22T15:33:52.314Z,1.90
2019-04-22T15:36:22.080Z,2.07
2019-04-22T15:38:51.308Z,2.13
2019-04-22T15:41:20.716Z,2.40
2019-04-22T15:43:49.792Z,2.10
2019-04-22T15:46:21.809Z,1.93
2019-04-22T15:49:15.968Z,2.10
2019-04-22T15:52:00.756Z,2.40
2019-04-22T15:54:29.847Z,2.40
2019-04-22T15:56:59.035Z,2.60
2019-04-22T15:59:46.550Z,2.57
2019-04-22T16:02:00.069Z,1.80
2019-04-22T16:04:28.541Z,2.37
2019-04-22T16:06:57.105Z,2.93
2019-04-22T16:09:26.737Z,2.20
2019-04-22T16:11:55.105Z,2.50
2019-04-22T16:14:31.382Z,2.20
2019-04-22T16:16:54.684Z,2.70
2019-04-22T16:19:23.265Z,2.90
2019-04-22T16:21:59.423Z,2.27
2019-04-22T16:24:40.373Z,2.30
2019-04-22T16:27:22.703Z,2.10
2019-04-22T16:29:51.568Z,2.53
2019-04-22T16:32:21.116Z,2.00
2019-04-22T16:34:49.909Z,2.03
2019-04-22T16:37:18.874Z,2.20
2019-04-22T16:39:50.283Z,2.67
2019-04-22T16:42:28.952Z,2.63
2019-04-22T16:44:47.614Z,3.17
2019-04-22T16:47:17.420Z,2.30
2019-04-22T16:49:45.916Z,2.90
2019-04-22T16:52:14.169Z,3.83
2019-04-22T16:54:42.232Z,2.80
2019-04-22T16:57:12.048Z,2.23
2019-04-22T16:59:40.472Z,2.30
2019-04-22T17:02:30.788Z,2.50
2019-04-22T17:05:18.053Z,2.57
2019-04-22T17:07:48.080Z,2.40
2019-04-22T17:10:17.646Z,2.50
2019-04-22T17:12:54.302Z,2.80
2019-04-22T17:15:18.564Z,2.40
2019-04-22T17:17:47.394Z,2.97
2019-04-22T17:20:17.322Z,2.80
2019-04-22T17:22:47.320Z,2.80
2019-04-22T17:25:16.277Z,3.00
2019-04-22T17:27:45.595Z,2.80
2019-04-22T17:30:14.703Z,3.10
2019-04-22T17:32:46.782Z,2.90
2019-04-22T17:35:13.526Z,2.57
2019-04-22T17:37:42.905Z,2.80
2019-04-22T17:40:29.800Z,3.10
2019-04-22T17:43:06.976Z,3.17
2019-04-22T17:45:58.428Z,2.90
2019-04-22T17:48:46.408Z,3.30
2019-04-22T17:51:30.030Z,3.40
2019-04-22T17:53:56.653Z,3.20
2019-04-22T17:56:23.270Z,3.50
2019-04-22T17:58:54.338Z,3.57
2019-04-22T18:01:25.517Z,4.07
2019-04-22T18:03:40.756Z,3.40
2019-04-22T18:06:11.023Z,4.43
2019-04-22T18:08:54.916Z,4.70
2019-04-22T18:11:33.596Z,4.60
2019-04-22T18:14:00.168Z,4.60
2019-04-22T18:16:25.939Z,4.60
2019-04-22T18:18:52.905Z,3.83
2019-04-22T18:21:23.239Z,4.00
2019-04-22T18:23:46.078Z,4.53
2019-04-22T18:26:27.556Z,5.03
2019-04-22T18:28:55.827Z,4.00
2019-04-22T18:31:18.432Z,4.00
2019-04-22T18:33:50.373Z,4.27
2019-04-22T18:36:27.973Z,4.20
2019-04-22T18:38:59.809Z,4.70
2019-04-22T18:41:26.399Z,4.30
2019-04-22T18:43:58.959Z,5.10
2019-04-22T18:46:28.862Z,4.43
2019-04-22T18:48:55.710Z,4.33
2019-04-22T18:51:35.220Z,4.00
2019-04-22T18:54:31.103Z,4.83
2019-04-22T18:56:59.510Z,4.80
2019-04-22T18:59:18.483Z,4.73
2019-04-22T19:01:42.097Z,4.73
2019-04-22T19:04:17.458Z,4.70
2019-04-22T19:07:01.762Z,4.70
2019-04-22T19:09:43.771Z,4.73
2019-04-22T19:12:15.453Z,5.00
2019-04-22T19:14:45.522Z,4.23
2019-04-22T19:17:21.605Z,4.67
2019-04-22T19:19:44.365Z,4.50
2019-04-22T19:22:07.399Z,4.80
2019-04-22T19:24:40.297Z,5.30
2019-04-22T19:27:09.113Z,5.20
2019-04-22T19:29:48.792Z,4.80
2019-04-22T19:32:07.219Z,4.80
2019-04-22T19:34:38.512Z,5.33
2019-04-22T19:37:11.808Z,5.30
2019-04-22T19:39:40.939Z,4.53
2019-04-22T19:42:19.119Z,5.10
2019-04-22T19:44:47.096Z,5.37
2019-04-22T19:47:24.065Z,4.87
2019-04-22T19:49:52.420Z,5.30
2019-04-22T19:52:18.919Z,5.70
2019-04-22T19:54:44.028Z,5.73
2019-04-22T19:57:11.717Z,5.50
2019-04-22T19:59:45.332Z,5.70
2019-04-22T20:02:42.323Z,5.57
2019-04-22T20:05:39.141Z,6.10
2019-04-22T20:08:07.315Z,4.80
2019-04-22T20:10:29.625Z,6.27
2019-04-22T20:13:10.103Z,5.90
2019-04-22T20:15:30.888Z,6.80
2019-04-22T20:20:44.711Z,6.10
2019-04-22T20:23:02.728Z,7.10
2019-04-22T20:25:34.895Z,6.87
2019-04-22T20:28:13.246Z,7.10
2019-04-22T20:30:39.796Z,6.90
2019-04-22T20:33:01.916Z,6.90
2019-04-22T20:35:41.844Z,7.30
2019-04-22T20:38:08.910Z,7.07
2019-04-22T20:40:39.758Z,7.10
2019-04-22T20:43:17.975Z,6.93
2019-04-22T20:45:39.529Z,7.30
2019-04-22T20:48:01.374Z,7.10
2019-04-22T20:50:41.376Z,7.67
2019-04-22T20:53:16.161Z,8.33
2019-04-22T20:55:45.881Z,7.87
2019-04-22T20:58:13.497Z,7.53
2019-04-22T21:00:39.028Z,8.40
2019-04-22T21:03:06.211Z,9.33
2019-04-22T21:05:38.339Z,8.50
2019-04-22T21:08:19.379Z,8.50
2019-04-22T21:10:49.406Z,9.00
2019-04-22T21:13:17.007Z,9.33
2019-04-22T21:16:00.796Z,9.30
2019-04-22T21:18:19.429Z,9.47
2019-04-22T21:20:57.947Z,10.50
2019-04-22T21:23:20.642Z,10.23
2019-04-22T21:25:57.197Z,10.63
2019-04-22T21:28:31.232Z,10.33
2019-04-22T21:30:52.239Z,10.80
2019-04-22T21:33:18.451Z,10.87
2019-04-22T21:38:28.041Z,10.33
2019-04-22T21:40:58.320Z,11.50
2019-04-22T21:43:29.939Z,11.67
2019-04-22T21:46:07.159Z,11.27
2019-04-22T21:48:36.913Z,12.23
2019-04-22T21:51:04.465Z,12.73
2019-04-22T21:53:45.530Z,12.53
2019-04-22T21:56:27.329Z,12.80
2019-04-22T21:58:49.506Z,13.30
2019-04-22T22:03:56.994Z,13.00
2019-04-22T22:06:16.713Z,14.30
2019-04-22T22:08:56.830Z,13.37
2019-04-22T22:11:24.568Z,13.43
2019-04-22T22:13:50.448Z,13.10
2019-04-22T22:16:19.288Z,14.77
2019-04-22T22:18:59.243Z,14.73
2019-04-22T22:21:49.645Z,14.97
2019-04-22T22:23:59.636Z,14.03
2019-04-22T22:26:19.264Z,13.20
2019-04-22T22:29:01.924Z,14.20
2019-04-22T22:31:33.293Z,13.33
2019-04-22T22:33:58.000Z,12.37
2019-04-22T22:36:22.003Z,13.40
2019-04-22T22:38:46.845Z,12.87
2019-04-22T22:41:03.757Z,13.23
2019-04-22T22:43:38.790Z,14.50
2019-04-22T22:46:15.061Z,15.20
2019-04-22T22:48:51.439Z,14.93
2019-04-22T22:51:30.666Z,13.77
2019-04-22T22:53:51.290Z,12.80
2019-04-22T22:56:25.311Z,13.63
2019-04-22T22:58:52.376Z,14.30
2019-04-22T23:01:24.164Z,14.27
2019-04-22T23:04:09.853Z,11.90
2019-04-22T23:06:26.091Z,12.77
2019-04-22T23:09:00.804Z,14.23
2019-04-22T23:11:34.869Z,14.33
2019-04-22T23:13:56.837Z,14.43
2019-04-22T23:16:15.264Z,15.90
2019-04-22T23:18:34.012Z,14.83
2019-04-22T23:21:03.187Z,14.07
2019-04-22T23:23:51.285Z,14.80
2019-04-22T23:26:43.934Z,15.97
2019-04-22T23:29:26.200Z,15.37
2019-04-22T23:31:50.352Z,15.87
2019-04-22T23:34:26.549Z,14.23
2019-04-22T23:37:16.682Z,16.27
2019-04-22T23:39:56.098Z,16.07
2019-04-22T23:42:23.695Z,12.03
2019-04-22T23:44:49.619Z,15.03
2019-04-22T23:47:29.779Z,13.27
2019-04-22T23:50:01.033Z,15.07
2019-04-22T23:52:43.324Z,16.80
2019-04-22T23:55:18.688Z,13.60
2019-04-22T23:57:42.083Z,13.70
